Huvudsida
METAR-TAF:

METAR-TAF

Flygplatser :

Piacenza, Italien

latitud: 44-55N, longitud: 009-44E, höjd: 134 m

Aktuellt väderrapport

Denna rapport gjordes för 6 timmar och 17 minuter sedan, klockan 17:55 UTC
Vind 3 kt från syd/sydväst
Temperatur 19°C
Fuktighet 100%
Tryck 1012 hPa
Sikt 10 km eller mer
Spridda moln på en höjd av 2000 ft
Spridda moln på en höjd av 7000 ft

METAR: LIMS 261755Z 21003KT 9999 SCT020 SCT070 19/19 Q1012 RMK BKN VIS MIN 9999 WIND THR30 21003KT BLU

Tid: 02:12 (00:12 UTC)


TAF: saknas

Aktuella väderrapporter och prognoser från 4000 flygplatser (METAR- och TAF-rapporter).

De tillgängliga stationerna syns som gula och röda prickar på kartan.

För musen över prickarna för att se namnen på stationerna.

Klicka sedan för att få väderrapporter och prognoser.

För att ändra kartan: Klicka på de gröna knapparna med ett svart kors på för att zooma in; den gröna knappen med ett streck på för att zooma ut; eller på de gröna pilarna för angränsande kartor.


METAR-TAF: